Time;durP1;ratioP1;P1;durP2;ratioP2;P2;SDS_P1;SDS_P2;PMS_P1;PMS_P2;Temp;Humidity;BMP_temperature;BMP_pressure;BME280_temperature;BME280_humidity;BME280_pressure;Samples;Min_cycle;Max_cycle;Signal;HPM_P1;HPM_P2
2022/11/21 00:00:21;;;;;;;;;;;;;;;8.54;100.00;98805.09;6281106;22;19921;-87
2022/11/21 00:02:46;;;;;;;;;;;;;;;8.57;100.00;98801.47;6254537;22;19920;-85
2022/11/21 00:05:11;;;;;;;;;;;;;;;8.60;100.00;98800.44;6151517;23;19916;-85
2022/11/21 00:07:37;;;;;;;;;;;;;;;8.62;100.00;98796.78;6253558;22;19913;-86
2022/11/21 00:10:02;;;;;;;;;;;;;;;8.65;100.00;98793.16;6151161;23;20241;-86
2022/11/21 00:12:27;;;;;;;;;;;;;;;8.67;100.00;98799.19;6255263;22;19916;-87
2022/11/21 00:14:53;;;;;;;;;;;;;;;8.69;100.00;98792.91;6151483;23;20328;-88
2022/11/21 00:17:18;;;;;;;;;;;;;;;8.72;100.00;98805.94;6254984;22;19913;-86
2022/11/21 00:19:43;;;;;;;;;;;;;;;8.75;100.00;98807.59;6151629;23;19916;-86
2022/11/21 00:22:08;;;;;;;;;;;;;;;8.77;100.00;98794.31;6149997;23;19926;-86
2022/11/21 00:24:33;;;;;;;;;;;;;;;8.81;100.00;98793.22;6151680;23;19920;-86
2022/11/21 00:26:59;;;;;;;;;;;;;;;8.83;100.00;98794.84;6254623;22;19919;-85
2022/11/21 00:29:24;;;;;;;;;;;;;;;8.83;100.00;98800.13;6254870;22;19919;-86
2022/11/21 00:31:49;;;;;;;;;;;;;;;8.86;100.00;98796.47;6280717;22;19908;-86
2022/11/21 00:34:15;;;;;;;;;;;;;;;8.85;100.00;98787.69;6254943;22;19913;-85
2022/11/21 00:36:40;;;;;;;;;;;;;;;8.88;100.00;98786.69;6279443;22;20292;-86
2022/11/21 00:39:06;;;;;;;;;;;;;;;8.90;100.00;98779.50;6254521;22;19955;-85
2022/11/21 00:41:31;;;;;;;;;;;;;;;8.91;100.00;98775.94;6254889;22;19943;-87
2022/11/21 00:43:56;;;;;;;;;;;;;;;8.93;100.00;98786.44;6254563;22;19908;-86
2022/11/21 00:46:21;;;;;;;;;;;;;;;8.23;100.00;98781.13;6253853;22;19916;-87
2022/11/21 00:48:47;;;;;;;;;;;;;;;7.07;100.00;98770.72;6254876;22;19919;-86
2022/11/21 03:24:44;;;;;;;;;;;;;;;7.69;100.00;98710.75;6274722;22;19922;-91
2022/11/21 03:27:09;;;;;;;;;;;;;;;6.97;100.00;98712.28;6363461;22;19915;-90
2022/11/21 03:29:34;;;;;;;;;;;;;;;6.57;100.00;98714.06;6339049;22;19911;-90
2022/11/21 03:31:59;;;;;;;;;;;;;;;6.40;100.00;98711.31;6338917;22;20242;-90
2022/11/21 03:34:25;;;;;;;;;;;;;;;6.21;100.00;98705.97;6339183;22;19990;-86
2022/11/21 03:36:50;;;;;;;;;;;;;;;6.11;100.00;98709.00;6339610;22;19981;-92
2022/11/21 03:39:15;;;;;;;;;;;;;;;5.97;100.00;98704.31;6337719;22;20237;-93
2022/11/21 03:41:41;;;;;;;;;;;;;;;5.87;100.00;98702.09;6339413;22;19910;-94
2022/11/21 03:44:07;;;;;;;;;;;;;;;5.90;100.00;98697.56;6339355;22;19997;-94
2022/11/21 03:46:34;;;;;;;;;;;;;;;5.81;100.00;98705.84;6342449;22;19945;-92
2022/11/21 03:49:00;;;;;;;;;;;;;;;5.66;100.00;98704.66;6339443;22;19910;-93
2022/11/21 03:51:25;;;;;;;;;;;;;;;5.56;100.00;98708.59;6338922;22;20230;-90
2022/11/21 03:53:50;;;;;;;;;;;;;;;5.49;100.00;98707.97;6337658;22;19917;-93
2022/11/21 03:56:16;;;;;;;;;;;;;;;5.52;100.00;98713.13;6338839;22;20281;-89
2022/11/21 03:58:41;;;;;;;;;;;;;;;5.46;100.00;98708.09;6365063;22;20494;-88
2022/11/21 04:01:07;;;;;;;;;;;;;;;5.35;100.00;98719.00;6339666;22;20383;-92
2022/11/21 04:03:32;;;;;;;;;;;;;;;5.28;100.00;98718.41;6364255;22;20296;-91
2022/11/21 04:05:57;;;;;;;;;;;;;;;5.25;100.00;98715.88;6338932;22;19946;-89
2022/11/21 04:08:23;;;;;;;;;;;;;;;5.19;100.00;98718.75;6336982;22;19914;-90
2022/11/21 04:10:49;;;;;;;;;;;;;;;5.19;100.00;98715.28;6363658;22;19910;-88
2022/11/21 04:13:14;;;;;;;;;;;;;;;5.49;100.00;98707.97;6338713;22;19910;-91
2022/11/21 04:15:40;;;;;;;;;;;;;;;6.21;100.00;98704.22;6336594;22;19960;-91
2022/11/21 04:18:06;;;;;;;;;;;;;;;6.57;100.00;98708.81;6338511;22;20027;-88
2022/11/21 04:20:31;;;;;;;;;;;;;;;6.80;100.00;98712.22;6339094;22;20351;-88
2022/11/21 04:22:56;;;;;;;;;;;;;;;6.95;100.00;98714.16;6338933;22;19911;-88
2022/11/21 04:25:21;;;;;;;;;;;;;;;7.09;100.00;98711.75;6340278;22;19950;-89
2022/11/21 04:27:46;;;;;;;;;;;;;;;7.20;100.00;98716.53;6340416;22;19963;-89
2022/11/21 04:30:12;;;;;;;;;;;;;;;7.32;100.00;98714.25;6340310;22;20249;-88
2022/11/21 04:32:37;;;;;;;;;;;;;;;7.37;100.00;98702.59;6340435;22;19957;-88
2022/11/21 04:35:02;;;;;;;;;;;;;;;7.45;100.00;98708.34;6340409;22;20318;-87
2022/11/21 04:37:28;;;;;;;;;;;;;;;7.53;100.00;98707.97;6340705;22;19911;-88
2022/11/21 04:39:53;;;;;;;;;;;;;;;7.61;100.00;98712.88;6337521;22;20036;-89
2022/11/21 04:42:18;;;;;;;;;;;;;;;7.66;100.00;98713.53;6340268;22;19963;-87
2022/11/21 04:44:43;;;;;;;;;;;;;;;7.75;100.00;98720.13;6340322;22;19910;-87
2022/11/21 04:47:09;;;;;;;;;;;;;;;7.80;100.00;98721.63;6340367;22;20242;-87
2022/11/21 04:49:34;;;;;;;;;;;;;;;7.85;100.00;98716.13;6340222;22;19910;-87
2022/11/21 04:51:59;;;;;;;;;;;;;;;7.91;100.00;98726.34;6340263;22;19911;-86
2022/11/21 04:54:24;;;;;;;;;;;;;;;7.95;100.00;98727.94;6338328;22;20287;-86
2022/11/21 08:56:30;;;;;;;;;;;;;;;8.88;100.00;98594.69;6260713;22;19959;-88
2022/11/21 08:58:56;;;;;;;;;;;;;;;8.89;100.00;98599.03;6339201;22;19985;-93
2022/11/21 09:01:21;;;;;;;;;;;;;;;8.91;100.00;98602.44;6340977;22;19910;-93
2022/11/21 09:03:47;;;;;;;;;;;;;;;8.57;100.00;98599.91;6340099;22;19942;-89
2022/11/21 09:06:12;;;;;;;;;;;;;;;7.23;100.00;98602.25;6338940;22;19910;-91
2022/11/21 09:08:38;;;;;;;;;;;;;;;6.78;100.00;98585.03;6338540;22;19986;-91
2022/11/21 09:11:10;;;;;;;;;;;;;;;6.58;100.00;98586.81;6338989;22;19918;-91
2022/11/21 09:13:35;;;;;;;;;;;;;;;6.32;100.00;98586.22;6342332;22;19911;-91
2022/11/21 09:18:45;;;;;;;;;;;;;;;6.04;100.00;98583.09;6341886;22;19976;-91
2022/11/21 09:21:14;;;;;;;;;;;;;;;5.92;100.00;98579.19;6341585;22;19918;-90
2022/11/21 09:23:40;;;;;;;;;;;;;;;5.78;100.00;98585.03;6322012;22;20230;-91
2022/11/21 09:26:05;;;;;;;;;;;;;;;5.68;100.00;98591.59;6339599;22;19990;-93
2022/11/21 09:28:30;;;;;;;;;;;;;;;5.70;100.00;98589.78;6342328;22;19911;-92
2022/11/21 09:30:55;;;;;;;;;;;;;;;5.54;100.00;98585.16;6341279;22;19918;-91
2022/11/21 09:33:21;;;;;;;;;;;;;;;5.51;100.00;98582.66;6313459;22;20322;-92
2022/11/21 09:35:46;;;;;;;;;;;;;;;5.45;100.00;98585.53;6342406;22;19911;-90
2022/11/21 09:38:11;;;;;;;;;;;;;;;5.38;100.00;98578.81;6313306;22;20261;-92
2022/11/21 09:40:38;;;;;;;;;;;;;;;5.33;100.00;98579.00;6339685;22;19956;-91
2022/11/21 09:43:19;;;;;;;;;;;;;;;5.27;100.00;98580.09;6340802;22;20372;-88
2022/11/21 09:45:48;;;;;;;;;;;;;;;5.61;100.00;98573.44;6340034;22;20326;-93
2022/11/21 09:48:18;;;;;;;;;;;;;;;6.34;100.00;98573.84;6340153;22;19910;-92
2022/11/21 09:50:47;;;;;;;;;;;;;;;6.72;100.00;98562.50;6340425;22;19917;-90
2022/11/21 09:53:16;;;;;;;;;;;;;;;6.94;100.00;98570.25;6339836;22;19915;-90
2022/11/21 09:56:05;;;;;;;;;;;;;;;7.12;100.00;98559.75;6341972;22;19911;-96
2022/11/21 09:58:30;;;;;;;;;;;;;;;7.28;100.00;98552.81;6313709;22;19958;-89
2022/11/21 10:00:55;;;;;;;;;;;;;;;7.39;100.00;98547.88;6306106;22;19911;-92
2022/11/21 10:03:22;;;;;;;;;;;;;;;7.48;100.00;98546.53;6280102;22;19911;-88
2022/11/21 10:05:57;;;;;;;;;;;;;;;7.61;100.00;98544.13;6280219;22;19940;-91
2022/11/21 10:08:33;;;;;;;;;;;;;;;7.69;100.00;98531.44;6306684;22;20305;-88
2022/11/21 10:11:20;;;;;;;;;;;;;;;7.79;100.00;98521.28;6304344;22;20060;-88
2022/11/21 10:13:56;;;;;;;;;;;;;;;7.89;100.00;98517.22;6279464;22;19911;-84
2022/11/21 10:16:44;;;;;;;;;;;;;;;7.99;100.00;98507.03;6305532;22;19915;-87
2022/11/21 10:19:19;;;;;;;;;;;;;;;8.05;100.00;98496.16;6265211;22;19917;-88
2022/11/21 10:21:44;;;;;;;;;;;;;;;8.13;100.00;98490.47;6279565;22;19910;-91
2022/11/21 10:24:28;;;;;;;;;;;;;;;8.21;100.00;98488.28;6309481;22;19936;-89
2022/11/21 10:26:56;;;;;;;;;;;;;;;8.27;100.00;98481.84;6335956;22;19961;-86
2022/11/21 10:29:22;;;;;;;;;;;;;;;8.33;100.00;98468.31;6339495;22;19917;-89
2022/11/21 10:31:48;;;;;;;;;;;;;;;8.37;100.00;98472.47;6339760;22;19993;-90
2022/11/21 10:34:19;;;;;;;;;;;;;;;8.38;100.00;98471.53;6312210;22;20039;-89
2022/11/21 10:36:49;;;;;;;;;;;;;;;8.44;100.00;98460.69;6311891;22;20337;-88
2022/11/21 10:39:20;;;;;;;;;;;;;;;8.47;100.00;98464.94;6338983;22;20029;-89
2022/11/21 10:42:03;;;;;;;;;;;;;;;8.49;100.00;98471.84;6310872;22;19910;-89
2022/11/21 10:47:15;;;;;;;;;;;;;;;8.57;100.00;98457.34;6339253;22;19917;-87
2022/11/21 10:49:41;;;;;;;;;;;;;;;8.60;100.00;98459.81;6339423;22;20214;-89
2022/11/21 10:52:11;;;;;;;;;;;;;;;8.63;100.00;98451.72;6311667;22;19914;-89
2022/11/21 10:55:01;;;;;;;;;;;;;;;8.66;100.00;98452.44;6311005;22;19937;-87
2022/11/21 10:57:30;;;;;;;;;;;;;;;8.68;100.00;98444.38;6339292;22;19954;-89
2022/11/21 10:59:58;;;;;;;;;;;;;;;8.70;100.00;98442.53;6312022;22;19918;-91
2022/11/21 11:02:24;;;;;;;;;;;;;;;8.73;100.00;98429.16;6311185;22;19959;-91
2022/11/21 11:05:10;;;;;;;;;;;;;;;8.74;100.00;98420.28;6339784;22;19985;-89
2022/11/21 11:07:35;;;;;;;;;;;;;;;8.78;100.00;98416.53;6338408;22;20280;-88
2022/11/21 11:10:14;;;;;;;;;;;;;;;8.81;100.00;98412.88;6337958;22;19911;-91
2022/11/21 11:15:25;;;;;;;;;;;;;;;8.85;100.00;98411.75;6339424;22;19918;-88
2022/11/21 11:17:52;;;;;;;;;;;;;;;8.88;100.00;98407.13;6339253;22;19917;-93
2022/11/21 11:20:46;;;;;;;;;;;;;;;8.88;100.00;98393.91;6339241;22;19910;-90
2022/11/21 11:23:16;;;;;;;;;;;;;;;8.92;100.00;98378.78;6305239;22;19916;-89
2022/11/21 11:25:47;;;;;;;;;;;;;;;8.96;100.00;98382.06;6362585;22;19910;-89
2022/11/21 11:28:12;;;;;;;;;;;;;;;8.78;100.00;98374.28;6363711;22;19910;-86
2022/11/21 11:30:37;;;;;;;;;;;;;;;7.38;100.00;98374.84;6338572;22;19917;-88
2022/11/21 11:33:02;;;;;;;;;;;;;;;6.90;100.00;98371.19;6337833;22;19950;-86
2022/11/21 11:35:31;;;;;;;;;;;;;;;6.55;100.00;98358.00;6339472;22;20211;-92
2022/11/21 11:38:02;;;;;;;;;;;;;;;6.37;100.00;98343.97;6364159;22;19994;-92
2022/11/21 11:40:34;;;;;;;;;;;;;;;6.15;100.00;98338.88;6337407;22;19915;-90
2022/11/21 11:48:48;;;;;;;;;;;;;;;5.80;100.00;98318.53;6338827;22;19933;-89
2022/11/21 11:51:24;;;;;;;;;;;;;;;5.77;100.00;98317.84;6338891;22;19989;-86
2022/11/21 11:53:52;;;;;;;;;;;;;;;5.59;100.00;98306.41;6338629;22;19918;-87
2022/11/21 11:56:26;;;;;;;;;;;;;;;5.56;100.00;98303.94;6337311;22;19911;-88
2022/11/21 11:58:51;;;;;;;;;;;;;;;5.52;100.00;98291.84;6339115;22;19918;-89
2022/11/21 12:01:38;;;;;;;;;;;;;;;5.42;100.00;98292.25;6337660;22;19911;-86
2022/11/21 12:04:12;;;;;;;;;;;;;;;5.40;100.00;98277.50;6339335;22;19918;-86
2022/11/21 12:06:44;;;;;;;;;;;;;;;5.38;100.00;98268.84;6338710;22;19945;-87
2022/11/21 12:09:28;;;;;;;;;;;;;;;5.37;100.00;98272.38;6339150;22;19914;-90
2022/11/21 12:12:05;;;;;;;;;;;;;;;5.33;100.00;98258.56;6337230;22;19934;-90
2022/11/21 12:17:24;;;;;;;;;;;;;;;5.32;100.00;98248.13;6305705;22;20290;-84
2022/11/21 12:19:51;;;;;;;;;;;;;;;5.73;100.00;98245.34;6338959;22;19958;-89
2022/11/21 12:22:16;;;;;;;;;;;;;;;6.33;100.00;98230.16;6363132;22;19911;-85
2022/11/21 12:24:42;;;;;;;;;;;;;;;6.65;100.00;98226.78;6361975;22;19921;-90
2022/11/21 12:27:27;;;;;;;;;;;;;;;6.87;100.00;98226.53;6336951;22;19911;-90
2022/11/21 12:30:08;;;;;;;;;;;;;;;7.08;100.00;98230.66;6363481;22;19989;-87
2022/11/21 12:32:36;;;;;;;;;;;;;;;7.21;100.00;98224.72;6338340;22;19910;-88
2022/11/21 12:35:19;;;;;;;;;;;;;;;7.31;100.00;98215.41;6338741;22;19918;-88
2022/11/21 12:37:54;;;;;;;;;;;;;;;7.43;100.00;98200.69;6330737;22;19915;-86
2022/11/21 12:40:48;;;;;;;;;;;;;;;7.52;100.00;98196.72;6330584;22;20243;-84
2022/11/21 12:43:26;;;;;;;;;;;;;;;7.62;100.00;98192.59;6329422;22;19915;-93
2022/11/21 12:45:56;;;;;;;;;;;;;;;7.69;100.00;98180.78;6332210;22;19993;-86
2022/11/21 12:57:15;;;;;;;;;;;;;;;8.01;100.00;98172.81;6328783;22;19971;-88
2022/11/21 12:59:43;;;;;;;;;;;;;;;8.07;100.00;98167.16;6331888;22;19911;-87
2022/11/21 13:02:21;;;;;;;;;;;;;;;8.14;100.00;98160.59;6331915;22;19944;-86
2022/11/21 13:04:48;;;;;;;;;;;;;;;8.19;100.00;98155.91;6333840;22;19918;-86
2022/11/21 13:07:14;;;;;;;;;;;;;;;8.25;100.00;98159.13;6331002;22;19925;-87
2022/11/21 13:09:40;;;;;;;;;;;;;;;8.31;100.00;98153.47;6332821;22;19934;-88
2022/11/21 13:12:30;;;;;;;;;;;;;;;8.33;100.00;98148.97;6333747;22;19987;-86
2022/11/21 13:15:14;;;;;;;;;;;;;;;8.35;100.00;98137.38;6360769;22;20323;-87
2022/11/21 13:17:43;;;;;;;;;;;;;;;8.43;100.00;98131.66;6339988;22;19914;-90
2022/11/21 13:20:14;;;;;;;;;;;;;;;8.45;100.00;98135.06;6338018;22;20318;-85
2022/11/21 13:22:40;;;;;;;;;;;;;;;8.50;100.00;98122.44;6339661;22;19977;-86
2022/11/21 13:25:13;;;;;;;;;;;;;;;8.53;100.00;98111.69;6336628;22;19942;-87
2022/11/21 13:27:38;;;;;;;;;;;;;;;8.58;100.00;98108.75;6364592;22;19990;-87
2022/11/21 13:30:07;;;;;;;;;;;;;;;8.59;100.00;98099.06;6337754;22;19945;-86
2022/11/21 13:32:51;;;;;;;;;;;;;;;8.61;100.00;98089.25;6337495;22;19906;-88
2022/11/21 13:35:19;;;;;;;;;;;;;;;8.65;100.00;98096.88;6337877;22;20407;-86
2022/11/21 13:37:50;;;;;;;;;;;;;;;8.65;100.00;98081.06;6337752;22;19907;-87
2022/11/21 13:40:25;;;;;;;;;;;;;;;8.70;100.00;98078.97;6336640;22;20315;-88
2022/11/21 13:43:08;;;;;;;;;;;;;;;8.72;100.00;98073.59;6339538;22;19910;-87
2022/11/21 13:45:37;;;;;;;;;;;;;;;8.75;100.00;98068.13;6338423;22;19910;-85
2022/11/21 13:48:05;;;;;;;;;;;;;;;8.78;100.00;98052.09;6338164;22;19911;-88
2022/11/21 13:50:43;;;;;;;;;;;;;;;8.80;100.00;98039.63;6339415;22;19911;-85
2022/11/21 13:53:15;;;;;;;;;;;;;;;8.83;100.00;98026.22;6339792;22;19910;-87
2022/11/21 13:55:46;;;;;;;;;;;;;;;8.85;100.00;98021.69;6336596;22;19911;-90
2022/11/21 13:58:19;;;;;;;;;;;;;;;8.86;100.00;98007.53;6337999;22;19953;-88
2022/11/21 14:01:03;;;;;;;;;;;;;;;8.88;100.00;98002.16;6364124;22;20341;-87
2022/11/21 14:03:35;;;;;;;;;;;;;;;8.89;100.00;97994.13;6363229;22;20338;-89
2022/11/21 14:06:19;;;;;;;;;;;;;;;8.94;100.00;97995.66;6337114;22;19914;-90
2022/11/21 14:09:03;;;;;;;;;;;;;;;8.37;100.00;97995.59;6364303;22;20314;-88
2022/11/21 14:11:33;;;;;;;;;;;;;;;7.07;100.00;97997.19;6336368;22;20345;-87
2022/11/21 14:13:58;;;;;;;;;;;;;;;6.71;100.00;97995.66;6337907;22;19910;-88
2022/11/21 14:16:34;;;;;;;;;;;;;;;6.42;100.00;97985.94;6338184;22;19910;-89
2022/11/21 14:19:01;;;;;;;;;;;;;;;6.31;100.00;97984.72;6365310;22;19911;-91
2022/11/21 14:21:28;;;;;;;;;;;;;;;6.17;100.00;97984.59;6364690;22;19910;-91
2022/11/21 14:24:04;;;;;;;;;;;;;;;6.04;100.00;97973.88;6339633;22;19919;-89
2022/11/21 14:26:39;;;;;;;;;;;;;;;5.92;100.00;97970.13;6338007;22;19922;-89
2022/11/21 14:29:23;;;;;;;;;;;;;;;5.83;100.00;97966.16;6364699;22;19937;-91
2022/11/21 14:31:49;;;;;;;;;;;;;;;5.82;100.00;97961.00;6364054;22;20325;-88
2022/11/21 14:34:24;;;;;;;;;;;;;;;5.68;100.00;97961.75;6364050;22;19911;-89
2022/11/21 14:36:52;;;;;;;;;;;;;;;5.72;100.00;97946.66;6337679;22;20376;-89
2022/11/21 14:39:19;;;;;;;;;;;;;;;5.59;100.00;97936.78;6338114;22;19910;-88
2022/11/21 14:41:48;;;;;;;;;;;;;;;5.48;100.00;97939.09;6362497;22;19948;-88
2022/11/21 14:44:14;;;;;;;;;;;;;;;5.51;100.00;97925.81;6363903;22;20250;-88
2022/11/21 14:46:41;;;;;;;;;;;;;;;5.41;100.00;97927.22;6364029;22;20310;-87
2022/11/21 14:49:15;;;;;;;;;;;;;;;5.35;100.00;97922.28;6339313;22;19990;-86
2022/11/21 14:51:42;;;;;;;;;;;;;;;5.28;100.00;97929.59;6337596;22;19914;-88
2022/11/21 14:54:18;;;;;;;;;;;;;;;5.21;100.00;97920.34;6339348;22;19937;-88
2022/11/21 14:56:45;;;;;;;;;;;;;;;5.27;100.00;97913.00;6337684;22;19910;-88
2022/11/21 14:59:17;;;;;;;;;;;;;;;5.23;100.00;97902.75;6364041;22;20353;-88
2022/11/21 15:01:53;;;;;;;;;;;;;;;5.19;100.00;97906.47;6363717;22;19910;-88
2022/11/21 15:04:24;;;;;;;;;;;;;;;5.79;100.00;97903.34;6364068;22;19911;-90
2022/11/21 15:06:51;;;;;;;;;;;;;;;6.36;100.00;97895.84;6363511;22;19914;-89
2022/11/21 15:09:16;;;;;;;;;;;;;;;6.66;100.00;97881.91;6337538;22;20318;-89
2022/11/21 15:11:44;;;;;;;;;;;;;;;6.87;100.00;97842.13;6337437;22;19917;-88
2022/11/21 15:14:28;;;;;;;;;;;;;;;7.04;100.00;97817.44;6339157;22;19914;-93
2022/11/21 15:16:55;;;;;;;;;;;;;;;7.17;100.00;97813.13;6340164;22;19911;-89
2022/11/21 15:19:22;;;;;;;;;;;;;;;7.26;100.00;97799.41;6339195;22;20273;-89
2022/11/21 15:21:48;;;;;;;;;;;;;;;7.35;100.00;97803.25;6339022;22;20342;-88
2022/11/21 15:24:17;;;;;;;;;;;;;;;7.45;100.00;97800.88;6339033;22;19957;-88
2022/11/21 15:26:42;;;;;;;;;;;;;;;7.54;100.00;97776.59;6336023;22;19937;-94
2022/11/21 15:29:19;;;;;;;;;;;;;;;7.60;100.00;97762.22;6337871;22;20268;-87
2022/11/21 15:31:45;;;;;;;;;;;;;;;7.69;100.00;97751.09;6339308;22;19941;-86
2022/11/21 15:34:11;;;;;;;;;;;;;;;7.76;100.00;97741.00;6338983;22;20275;-90
2022/11/21 15:36:36;;;;;;;;;;;;;;;7.81;100.00;97742.38;6338154;22;19946;-86
2022/11/21 15:39:07;;;;;;;;;;;;;;;7.87;100.00;97735.03;6334444;22;20254;-91
2022/11/21 15:41:33;;;;;;;;;;;;;;;7.94;100.00;97733.69;6361586;22;19911;-87
2022/11/21 15:43:59;;;;;;;;;;;;;;;7.99;100.00;97726.31;6335057;22;19945;-92
2022/11/21 15:46:25;;;;;;;;;;;;;;;8.05;100.00;97712.72;6336159;22;19910;-87
2022/11/21 15:48:52;;;;;;;;;;;;;;;8.11;100.00;97701.78;6337080;22;19915;-90
2022/11/21 15:51:19;;;;;;;;;;;;;;;8.18;100.00;97704.84;6335999;22;19910;-88
2022/11/21 15:53:44;;;;;;;;;;;;;;;8.24;100.00;97717.66;6336057;22;19911;-86
2022/11/21 15:56:11;;;;;;;;;;;;;;;8.27;100.00;97719.25;6336674;22;19910;-92
2022/11/21 15:58:36;;;;;;;;;;;;;;;8.32;100.00;97723.25;6337339;22;19910;-86
2022/11/21 16:01:02;;;;;;;;;;;;;;;8.36;100.00;97718.63;6336534;22;19911;-89
2022/11/21 16:03:27;;;;;;;;;;;;;;;8.41;100.00;97719.16;6337008;22;19910;-87
2022/11/21 16:05:52;;;;;;;;;;;;;;;8.43;100.00;97714.66;6336706;22;19914;-88
2022/11/21 16:08:17;;;;;;;;;;;;;;;8.47;100.00;97704.72;6337134;22;19911;-88
2022/11/21 16:10:43;;;;;;;;;;;;;;;8.52;100.00;97689.44;6334804;22;19917;-90
2022/11/21 16:13:08;;;;;;;;;;;;;;;8.53;100.00;97677.94;6338585;22;19910;-87
2022/11/21 16:15:34;;;;;;;;;;;;;;;8.59;100.00;97706.56;6362599;22;19989;-87
2022/11/21 16:17:59;;;;;;;;;;;;;;;8.59;100.00;97709.19;6338864;22;19915;-88
2022/11/21 16:20:27;;;;;;;;;;;;;;;8.62;100.00;97703.72;6340845;22;19913;-91
2022/11/21 16:22:53;;;;;;;;;;;;;;;8.83;100.00;97697.91;6338154;22;19921;-91
2022/11/21 16:25:18;;;;;;;;;;;;;;;8.94;100.00;97702.47;6339667;22;19915;-91
2022/11/21 16:27:43;;;;;;;;;;;;;;;8.84;100.00;97703.09;6339464;22;19915;-92
2022/11/21 16:30:11;;;;;;;;;;;;;;;8.83;100.00;97695.28;6340313;22;19960;-91
2022/11/21 16:32:37;;;;;;;;;;;;;;;8.85;100.00;97688.91;6338773;22;19907;-93
2022/11/21 16:35:02;;;;;;;;;;;;;;;7.89;100.00;97685.69;6342830;22;19993;-90
2022/11/21 16:37:30;;;;;;;;;;;;;;;7.04;100.00;97683.13;6339875;22;19969;-89
2022/11/21 16:39:55;;;;;;;;;;;;;;;6.77;100.00;97685.69;6338028;22;19930;-89
2022/11/21 16:42:20;;;;;;;;;;;;;;;6.61;100.00;97688.41;6339982;22;20310;-90
2022/11/21 16:44:46;;;;;;;;;;;;;;;6.45;100.00;97685.84;6339891;22;19982;-91
2022/11/21 16:47:12;;;;;;;;;;;;;;;6.31;100.00;97679.59;6338385;22;19946;-91
2022/11/21 16:49:45;;;;;;;;;;;;;;;6.30;100.00;97675.28;6340628;22;19911;-92
2022/11/21 16:52:11;;;;;;;;;;;;;;;6.10;100.00;97663.28;6339426;22;19906;-91
2022/11/21 16:54:37;;;;;;;;;;;;;;;6.07;100.00;97646.84;6338524;22;19934;-93
2022/11/21 16:57:02;;;;;;;;;;;;;;;5.95;100.00;97637.84;6338250;22;19940;-91
2022/11/21 16:59:27;;;;;;;;;;;;;;;5.85;100.00;97637.53;6340213;22;19915;-91
2022/11/21 17:01:52;;;;;;;;;;;;;;;5.73;100.00;97638.28;6339705;22;19961;-91
2022/11/21 17:04:18;;;;;;;;;;;;;;;5.76;100.00;97643.31;6340127;22;19906;-92
2022/11/21 17:06:43;;;;;;;;;;;;;;;5.69;100.00;97645.47;6341012;22;19911;-93
2022/11/21 17:09:08;;;;;;;;;;;;;;;5.55;100.00;97646.25;6365816;22;19922;-89
2022/11/21 17:11:34;;;;;;;;;;;;;;;5.42;100.00;97653.94;6338421;22;19918;-93
2022/11/21 17:14:00;;;;;;;;;;;;;;;5.34;100.00;97642.19;6336691;22;20301;-88
2022/11/21 17:16:26;;;;;;;;;;;;;;;5.33;100.00;97635.25;6340290;22;19938;-91
2022/11/21 17:18:52;;;;;;;;;;;;;;;5.23;100.00;97638.41;6339219;22;19956;-88
2022/11/21 17:21:17;;;;;;;;;;;;;;;5.23;100.00;97638.41;6339366;22;19911;-87
2022/11/21 17:23:43;;;;;;;;;;;;;;;5.06;100.00;97635.84;6338412;22;20318;-90
2022/11/21 17:26:12;;;;;;;;;;;;;;;5.03;100.00;97636.84;6339529;22;20281;-85
2022/11/21 17:28:37;;;;;;;;;;;;;;;4.98;100.00;97628.38;6338762;22;19911;-86
2022/11/21 17:31:06;;;;;;;;;;;;;;;4.90;100.00;97638.47;6338921;22;19914;-90
2022/11/21 17:33:31;;;;;;;;;;;;;;;5.23;100.00;97634.91;6339131;22;19910;-90
2022/11/21 17:35:56;;;;;;;;;;;;;;;5.81;100.00;97625.53;6337433;22;19911;-87
2022/11/21 17:38:22;;;;;;;;;;;;;;;6.09;100.00;97624.78;6339097;22;19918;-84
2022/11/21 17:40:57;;;;;;;;;;;;;;;6.22;100.00;97624.06;6363574;22;20356;-90
2022/11/21 17:43:22;;;;;;;;;;;;;;;6.29;100.00;97628.88;6338838;22;19911;-86
2022/11/21 17:45:48;;;;;;;;;;;;;;;6.39;100.00;97628.31;6337678;22;19914;-84
2022/11/21 17:48:13;;;;;;;;;;;;;;;6.47;100.00;97633.97;6337463;22;19918;-88
2022/11/21 17:50:39;;;;;;;;;;;;;;;6.50;100.00;97631.97;6338499;22;19973;-88
2022/11/21 17:53:04;;;;;;;;;;;;;;;6.58;100.00;97626.25;6338574;22;19990;-88
2022/11/21 17:55:29;;;;;;;;;;;;;;;6.58;100.00;97621.00;6337005;22;19911;-89
2022/11/21 17:57:55;;;;;;;;;;;;;;;6.53;100.00;97616.00;6338710;22;19989;-88
2022/11/21 18:00:20;;;;;;;;;;;;;;;6.47;100.00;97618.16;6339271;22;19945;-91
2022/11/21 18:02:45;;;;;;;;;;;;;;;6.51;100.00;97612.63;6338541;22;20371;-86
2022/11/21 18:05:11;;;;;;;;;;;;;;;6.53;100.00;97607.28;6337571;22;20207;-89
2022/11/21 18:07:37;;;;;;;;;;;;;;;6.51;100.00;97606.50;6339136;22;19917;-87
2022/11/21 18:10:02;;;;;;;;;;;;;;;6.56;100.00;97591.31;6336640;22;19910;-88
2022/11/21 18:12:49;;;;;;;;;;;;;;;6.58;100.00;97583.31;6337885;22;19911;-88
2022/11/21 18:15:15;;;;;;;;;;;;;;;6.69;100.00;97586.97;6358128;22;19915;-89
2022/11/21 18:17:40;;;;;;;;;;;;;;;6.77;100.00;97570.69;6338995;22;19913;-90
2022/11/21 18:20:08;;;;;;;;;;;;;;;6.97;100.00;97574.69;6338600;22;19915;-88
2022/11/21 18:22:33;;;;;;;;;;;;;;;7.15;100.00;97569.19;6339106;22;19906;-86
2022/11/21 18:24:59;;;;;;;;;;;;;;;7.24;100.00;97563.34;6336988;22;19999;-89
2022/11/21 18:27:26;;;;;;;;;;;;;;;7.35;100.00;97562.66;6338508;22;20279;-89
2022/11/21 18:29:51;;;;;;;;;;;;;;;7.44;100.00;97555.00;6338171;22;19941;-90
2022/11/21 18:32:17;;;;;;;;;;;;;;;7.55;100.00;97542.91;6338572;22;19914;-86
2022/11/21 18:34:42;;;;;;;;;;;;;;;7.61;100.00;97550.38;6336374;22;19910;-86
2022/11/21 18:37:07;;;;;;;;;;;;;;;7.69;100.00;97528.81;6337751;22;19915;-86
2022/11/21 18:39:33;;;;;;;;;;;;;;;7.76;100.00;97530.09;6339093;22;19910;-87
2022/11/21 18:41:58;;;;;;;;;;;;;;;7.87;100.00;97526.75;6335290;22;19910;-88
2022/11/21 18:44:23;;;;;;;;;;;;;;;7.95;100.00;97530.53;6338768;22;19963;-90
2022/11/21 18:46:49;;;;;;;;;;;;;;;8.05;100.00;97529.91;6336896;22;19915;-88
2022/11/21 18:49:14;;;;;;;;;;;;;;;8.17;100.00;97529.91;6338425;22;19910;-90
2022/11/21 18:51:39;;;;;;;;;;;;;;;8.27;100.00;97529.28;6338786;22;19945;-93
2022/11/21 18:54:06;;;;;;;;;;;;;;;8.32;100.00;97533.28;6338886;22;19911;-86
2022/11/21 18:56:32;;;;;;;;;;;;;;;8.39;100.00;97533.69;6337679;22;19910;-88
2022/11/21 18:58:57;;;;;;;;;;;;;;;8.46;100.00;97528.88;6337323;22;20040;-90
2022/11/21 19:01:23;;;;;;;;;;;;;;;8.45;100.00;97525.38;6338226;22;19914;-92
2022/11/21 19:03:50;;;;;;;;;;;;;;;8.49;100.00;97524.22;6336777;22;19915;-86
2022/11/21 19:06:16;;;;;;;;;;;;;;;8.52;100.00;97524.00;6364512;22;19914;-96
2022/11/21 19:08:45;;;;;;;;;;;;;;;8.62;100.00;97531.28;6358789;22;19921;-87
2022/11/21 19:11:12;;;;;;;;;;;;;;;8.65;100.00;97523.16;6336840;22;19933;-91
2022/11/21 19:13:40;;;;;;;;;;;;;;;8.71;100.00;97525.31;6365195;22;19910;-87
2022/11/21 19:16:06;;;;;;;;;;;;;;;8.75;100.00;97528.63;6338292;22;19933;-88
2022/11/21 19:18:35;;;;;;;;;;;;;;;8.81;100.00;97529.00;6338837;22;19955;-87
2022/11/21 19:21:02;;;;;;;;;;;;;;;8.83;100.00;97521.81;6338354;22;19915;-90
2022/11/21 19:23:29;;;;;;;;;;;;;;;8.87;100.00;97514.50;6337658;22;22359;-91
2022/11/21 19:25:59;;;;;;;;;;;;;;;8.90;100.00;97501.09;6335718;22;19919;-91
2022/11/21 19:28:38;;;;;;;;;;;;;;;;;;;;;
2022/11/21 19:31:06;;;;;;;;;;;;;;;8.51;100.00;97489.81;6339269;22;19994;-87
2022/11/21 19:33:32;;;;;;;;;;;;;;;8.04;100.00;97492.16;6338619;22;19918;-85
2022/11/21 19:36:01;;;;;;;;;;;;;;;7.56;100.00;97491.88;6336509;22;19956;-87
2022/11/21 19:38:26;;;;;;;;;;;;;;;7.43;100.00;97484.78;6338322;22;19912;-86
2022/11/21 19:43:35;;;;;;;;;;;;;;;7.24;100.00;97497.50;6338804;22;19917;-85
2022/11/21 19:46:01;;;;;;;;;;;;;;;7.03;100.00;97508.47;6338116;22;19911;-88
2022/11/21 19:48:26;;;;;;;;;;;;;;;7.04;100.00;97507.53;6362545;22;20215;-89
2022/11/21 19:50:55;;;;;;;;;;;;;;;6.97;100.00;97498.34;6336572;22;19918;-85
2022/11/21 19:53:21;;;;;;;;;;;;;;;6.83;100.00;97503.66;6365850;22;20319;-88
2022/11/21 19:55:46;;;;;;;;;;;;;;;6.73;100.00;97493.72;6339223;22;19911;-87